Time;durP1;ratioP1;P1;durP2;ratioP2;P2;SDS_P1;SDS_P2;PMS_P1;PMS_P2;Temp;Humidity;BMP_temperature;BMP_pressure;BME280_temperature;BME280_humidity;BME280_pressure;Samples;Min_cycle;Max_cycle;Signal;HPM_P1;HPM_P2
2022/10/19 00:02:24;;;;;;;21.65;14.10;;;;;;;13.25;95.47;101831.94;4937953;29;20102;-73
2022/10/19 00:05:27;;;;;;;18.85;11.55;;;;;;;13.45;94.94;101841.56;4937536;29;20063;-74
2022/10/19 00:08:30;;;;;;;21.42;13.20;;;;;;;13.28;95.22;101830.97;4937853;29;20110;-73
2022/10/19 00:11:38;;;;;;;26.55;13.88;;;;;;;13.45;94.45;101827.59;4937801;29;20101;-73
2022/10/19 00:14:41;;;;;;;37.03;14.00;;;;;;;13.07;96.66;101822.16;4937169;29;20047;-73
2022/10/19 00:17:45;;;;;;;23.00;12.52;;;;;;;13.21;97.34;101818.97;4937714;29;20411;-73
2022/10/19 00:20:48;;;;;;;21.65;12.95;;;;;;;13.39;96.34;101820.81;4936810;29;20499;-74
2022/10/19 00:23:52;;;;;;;26.52;12.07;;;;;;;13.38;95.39;101820.91;4937557;29;20106;-73
2022/10/19 00:26:57;;;;;;;22.38;12.57;;;;;;;13.09;96.98;101819.50;4937423;29;20051;-73
2022/10/19 00:30:02;;;;;;;23.27;13.07;;;;;;;13.08;97.04;101817.75;4937438;29;20110;-73
2022/10/19 00:33:06;;;;;;;22.17;13.40;;;;;;;13.07;96.77;101813.44;4937483;29;20078;-73
2022/10/19 00:36:21;;;;;;;19.48;12.52;;;;;;;13.03;96.70;101815.34;4936878;29;20192;-73
2022/10/19 00:39:24;;;;;;;24.92;10.90;;;;;;;13.06;96.47;101809.97;4936969;29;20055;-74
2022/10/19 00:42:28;;;;;;;19.55;10.50;;;;;;;13.24;95.74;101809.22;4937119;29;20424;-73
2022/10/19 00:45:32;;;;;;;17.27;10.77;;;;;;;13.43;94.60;101803.16;4937175;29;20050;-73
2022/10/19 00:48:35;;;;;;;19.33;10.90;;;;;;;13.39;94.26;101801.59;4937177;29;20460;-73
2022/10/19 00:51:42;;;;;;;23.05;12.40;;;;;;;13.26;94.24;101802.09;4936708;29;20081;-73
2022/10/19 00:54:49;;;;;;;19.08;10.93;;;;;;;13.24;94.46;101809.22;4936450;29;20091;-74
2022/10/19 00:57:53;;;;;;;20.58;11.82;;;;;;;13.26;94.67;101804.72;4936450;29;20419;-73
2022/10/19 01:01:00;;;;;;;22.42;11.73;;;;;;;13.48;93.96;101801.19;4924940;29;20098;-73
2022/10/19 01:04:04;;;;;;;22.80;11.30;;;;;;;13.54;93.42;101798.28;4936354;29;20131;-73
2022/10/19 01:07:08;;;;;;;16.02;11.70;;;;;;;13.37;94.04;101803.41;4936395;29;20051;-73
2022/10/19 01:10:12;;;;;;;18.65;11.60;;;;;;;13.43;93.91;101803.16;4936336;29;20148;-73
2022/10/19 01:13:48;;;;;;;16.83;11.93;;;;;;;13.52;93.80;101801.91;4936252;29;20108;-73
2022/10/19 01:17:01;;;;;;;22.05;12.85;;;;;;;13.65;92.78;101795.16;4936624;29;20090;-73
2022/10/19 01:20:27;;;;;;;17.17;11.45;;;;;;;13.65;92.68;101803.91;4924499;29;20058;-73
2022/10/19 01:23:57;;;;;;;19.08;12.52;;;;;;;13.73;92.33;101806.22;4936435;29;20562;-73
2022/10/19 01:27:13;;;;;;;32.38;15.05;;;;;;;13.57;92.78;101798.16;4936304;29;20097;-73
2022/10/19 01:30:46;;;;;;;18.67;11.65;;;;;;;13.67;92.11;101796.81;4936447;29;20077;-73
2022/10/19 01:34:15;;;;;;;16.90;11.75;;;;;;;13.50;91.99;101799.34;4936237;29;20055;-74
2022/10/19 01:37:33;;;;;;;16.88;12.10;;;;;;;13.61;91.59;101801.50;4936081;29;20062;-74
2022/10/19 01:41:12;;;;;;;18.33;12.55;;;;;;;13.60;90.79;101798.03;4935855;29;20054;-74
2022/10/19 01:44:26;;;;;;;18.90;12.18;;;;;;;13.50;91.39;101799.34;4935876;29;20074;-73
2022/10/19 01:47:35;;;;;;;20.67;11.93;;;;;;;13.49;91.87;101798.47;4936156;29;20055;-73
2022/10/19 01:50:50;;;;;;;17.10;12.70;;;;;;;13.55;91.51;101799.13;4935751;29;20046;-74
2022/10/19 01:53:59;;;;;;;15.43;12.63;;;;;;;13.45;91.25;101802.16;4935648;29;20513;-73
2022/10/19 01:57:06;;;;;;;44.05;13.63;;;;;;;13.31;91.08;101799.31;4935529;29;20435;-74
2022/10/19 02:00:11;;;;;;;17.52;12.60;;;;;;;13.14;92.69;101797.34;4935927;29;20059;-73
2022/10/19 02:03:17;;;;;;;18.25;12.98;;;;;;;13.24;91.95;101792.56;4935658;29;20051;-74
2022/10/19 02:06:21;;;;;;;18.90;12.85;;;;;;;13.25;92.31;101789.06;4935367;29;20550;-74
2022/10/19 02:09:24;;;;;;;16.80;13.63;;;;;;;13.36;92.13;101785.94;4923769;29;20518;-73
2022/10/19 02:12:27;;;;;;;;;;;;;;;13.22;91.93;101776.03;4935658;29;20098;-73
2022/10/19 02:15:35;;;;;;;16.42;12.40;;;;;;;13.20;92.21;101786.59;4935547;29;20450;-73
2022/10/19 02:18:43;;;;;;;18.17;13.35;;;;;;;13.18;91.42;101780.56;4935151;29;20106;-73
2022/10/19 02:21:48;;;;;;;15.55;12.23;;;;;;;13.18;91.79;101783.19;4934569;29;20404;-73
2022/10/19 02:24:51;;;;;;;15.95;11.98;;;;;;;13.15;92.44;101783.31;4912630;29;20120;-73
2022/10/19 02:27:54;;;;;;;19.20;13.18;;;;;;;13.24;91.97;101777.69;4935240;29;20471;-73
2022/10/19 02:30:58;;;;;;;;;;;;;;;13.29;91.69;101776.63;4935367;29;20070;-73
2022/10/19 02:34:03;;;;;;;15.45;10.52;;;;;;;13.22;90.64;101776.03;4934993;29;19949;-73
2022/10/19 02:37:07;;;;;;;17.08;11.43;;;;;;;13.29;90.24;101776.63;4935230;29;20055;-74
2022/10/19 02:40:13;;;;;;;16.80;11.82;;;;;;;13.34;89.36;101767.66;4934618;29;20051;-73
2022/10/19 02:43:20;;;;;;;18.58;11.85;;;;;;;13.28;90.37;101773.16;4935110;29;20481;-73
2022/10/19 02:46:45;;;;;;;14.80;11.75;;;;;;;13.28;90.54;101772.31;4935029;29;20038;-73
2022/10/19 02:49:49;;;;;;;14.55;12.35;;;;;;;13.34;90.02;101765.03;4934918;29;20125;-73
2022/10/19 02:52:53;;;;;;;18.23;12.90;;;;;;;13.19;89.80;101773.53;4935062;29;20051;-74
2022/10/19 02:55:57;;;;;;;18.60;15.07;;;;;;;13.20;90.01;101770.81;4934720;29;20102;-74
2022/10/19 02:59:02;;;;;;;16.73;14.90;;;;;;;13.23;89.83;101765.44;4934914;29;20087;-73
2022/10/19 03:02:06;;;;;;;18.08;14.02;;;;;;;12.97;90.71;101758.69;4934906;29;20062;-74
2022/10/19 03:05:09;;;;;;;16.73;12.52;;;;;;;12.99;91.18;101761.25;4934591;29;20127;-74
2022/10/19 03:08:12;;;;;;;;;;;;;;;13.08;90.37;101762.63;4935148;29;20082;-73
2022/10/19 03:11:16;;;;;;;15.68;13.65;;;;;;;13.09;89.92;101752.06;4934810;29;19921;-73
2022/10/19 03:14:19;;;;;;;19.00;14.07;;;;;;;13.09;90.02;101754.69;4935039;29;20053;-73
2022/10/19 03:17:23;;;;;;;17.70;14.48;;;;;;;13.09;89.67;101759.09;4934833;29;20050;-73
2022/10/19 03:20:25;;;;;;;;;;;;;;;13.10;89.75;101764.25;4934925;29;20510;-73
2022/10/19 03:23:29;;;;;;;;;;;;;;;13.25;88.79;101761.00;4923504;29;20414;-73
2022/10/19 03:26:33;;;;;;;19.70;13.82;;;;;;;12.95;89.46;101772.78;4934710;29;19971;-73
2022/10/19 03:29:36;;;;;;;14.25;11.88;;;;;;;12.88;89.77;101764.31;4934905;29;20050;-73
2022/10/19 03:32:39;;;;;;;22.33;13.45;;;;;;;12.70;90.43;101771.22;4935006;29;20114;-73
2022/10/19 03:35:48;;;;;;;17.10;13.07;;;;;;;12.89;90.07;101773.03;4938007;29;20038;-73
2022/10/19 03:38:57;;;;;;;20.33;13.65;;;;;;;12.92;89.40;101763.31;4938195;29;20051;-74
2022/10/19 03:42:00;;;;;;;16.42;12.63;;;;;;;12.94;88.95;101763.22;4938360;29;20463;-73
2022/10/19 03:45:04;;;;;;;16.88;13.20;;;;;;;12.85;89.84;101753.09;4938085;29;20050;-73
2022/10/19 03:48:08;;;;;;;16.20;13.65;;;;;;;12.90;88.02;101756.41;4938103;29;20510;-73
2022/10/19 03:51:15;;;;;;;15.07;13.23;;;;;;;12.61;88.77;101755.84;4937772;29;20149;-73
2022/10/19 03:54:25;;;;;;;16.70;12.80;;;;;;;12.61;88.63;101745.34;4938077;29;20050;-73
2022/10/19 03:57:28;;;;;;;18.50;13.48;;;;;;;12.66;88.86;101743.38;4925960;29;20415;-73
2022/10/19 04:00:34;;;;;;;17.08;12.45;;;;;;;12.67;88.63;101745.09;4937789;29;20470;-73
2022/10/19 04:03:40;;;;;;;22.55;15.20;;;;;;;12.82;87.71;101754.06;4937798;29;20050;-73
2022/10/19 04:06:52;;;;;;;15.43;12.75;;;;;;;12.72;87.92;101753.63;4937762;29;20432;-73
2022/10/19 04:10:00;;;;;;;17.48;13.25;;;;;;;12.74;87.65;101754.41;4937902;29;20522;-73
2022/10/19 04:13:05;;;;;;;18.58;13.30;;;;;;;12.83;87.28;101749.69;4937814;29;20116;-73
2022/10/19 04:16:12;;;;;;;16.95;13.38;;;;;;;12.83;87.33;101760.19;4925599;29;20114;-74
2022/10/19 04:19:15;;;;;;;18.25;13.27;;;;;;;12.71;87.33;101759.78;4956912;28;20577;-73
2022/10/19 04:22:21;;;;;;;17.63;11.85;;;;;;;12.41;88.09;101768.91;4976090;28;20057;-73
2022/10/19 04:25:25;;;;;;;14.13;11.18;;;;;;;12.44;87.97;101767.00;4975972;28;20050;-73
2022/10/19 04:28:29;;;;;;;14.27;11.35;;;;;;;12.31;88.35;101771.03;4975684;28;20454;-74
2022/10/19 04:31:58;;;;;;;15.95;10.95;;;;;;;12.30;87.84;101778.06;4975840;28;20065;-74
2022/10/19 04:35:03;;;;;;;13.80;11.20;;;;;;;12.30;87.31;101777.19;4975675;28;20140;-73
2022/10/19 04:38:10;;;;;;;13.38;10.57;;;;;;;12.41;86.91;101771.53;4975572;28;20050;-73
2022/10/19 04:41:17;;;;;;;11.07;9.80;;;;;;;12.47;86.26;101776.53;4975297;28;20053;-73
2022/10/19 04:44:21;;;;;;;12.68;10.05;;;;;;;12.36;85.57;101770.88;4974780;28;20566;-73
2022/10/19 04:47:25;;;;;;;11.02;9.48;;;;;;;12.46;85.08;101773.06;4973594;28;20509;-74
2022/10/19 04:50:28;;;;;;;14.60;9.85;;;;;;;12.47;85.49;101777.38;4974254;28;20045;-73
2022/10/19 04:53:33;;;;;;;10.02;8.90;;;;;;;12.49;84.95;101777.31;4973795;28;20050;-73
2022/10/19 04:56:38;;;;;;;11.90;10.30;;;;;;;12.40;84.54;101765.44;4974713;28;20042;-73
2022/10/19 04:59:42;;;;;;;12.68;10.00;;;;;;;12.49;84.82;101772.94;4975565;28;20086;-73
2022/10/19 05:02:47;;;;;;;11.63;10.15;;;;;;;12.52;84.08;101766.72;4974999;28;20126;-73
2022/10/19 05:05:51;;;;;;;14.70;10.10;;;;;;;12.43;84.25;101775.78;4974621;28;20607;-73
2022/10/19 05:08:55;;;;;;;13.73;10.25;;;;;;;12.31;84.98;101758.78;4975190;28;20062;-73
2022/10/19 05:12:00;;;;;;;17.08;9.32;;;;;;;12.28;85.08;101766.78;4975323;28;20052;-73
2022/10/19 05:15:04;;;;;;;14.40;10.30;;;;;;;12.06;86.12;101769.41;4974674;28;20057;-73
2022/10/19 05:18:08;;;;;;;16.13;10.30;;;;;;;12.20;85.89;101765.38;4974751;28;20054;-73
2022/10/19 05:21:13;;;;;;;15.10;9.98;;;;;;;12.15;86.24;101768.16;4974616;28;20053;-73
2022/10/19 05:24:16;;;;;;;12.77;10.02;;;;;;;12.20;84.98;101760.97;4974601;28;20105;-73
2022/10/19 05:27:21;;;;;;;14.80;9.15;;;;;;;11.98;85.89;101760.09;4974586;28;20125;-73
2022/10/19 05:30:24;;;;;;;10.70;8.48;;;;;;;11.83;85.65;101762.34;4974574;28;20186;-73
2022/10/19 05:33:28;;;;;;;11.32;9.00;;;;;;;11.98;86.36;101770.59;4974625;28;20126;-74
2022/10/19 05:36:35;;;;;;;15.35;10.13;;;;;;;12.03;86.01;101768.66;4974373;28;20454;-74
2022/10/19 05:39:40;;;;;;;13.27;9.63;;;;;;;12.13;84.61;101764.75;4974187;28;20046;-73
2022/10/19 05:42:47;;;;;;;15.27;8.23;;;;;;;12.11;84.06;101756.09;4974409;28;20114;-73
2022/10/19 05:45:51;;;;;;;13.07;8.50;;;;;;;12.13;83.80;101764.75;4974180;28;20077;-73
2022/10/19 05:48:57;;;;;;;11.93;8.45;;;;;;;12.05;85.01;101764.19;4973953;28;20062;-73
2022/10/19 05:52:01;;;;;;;13.77;9.10;;;;;;;12.11;84.37;101758.72;4966552;28;20179;-73
2022/10/19 05:55:05;;;;;;;14.55;8.77;;;;;;;12.08;84.40;101764.06;4974167;28;20069;-73
2022/10/19 05:58:09;;;;;;;15.18;8.18;;;;;;;12.14;84.06;101761.22;4962467;28;20093;-73
2022/10/19 06:01:13;;;;;;;15.55;9.10;;;;;;;12.15;84.21;101757.66;4954612;29;20082;-73
2022/10/19 06:04:16;;;;;;;15.77;9.32;;;;;;;12.03;83.65;101752.94;4953932;29;20054;-74
2022/10/19 06:07:20;;;;;;;11.30;8.55;;;;;;;12.00;83.51;101759.13;4954515;29;20054;-73
2022/10/19 06:10:23;;;;;;;15.57;8.20;;;;;;;11.88;84.25;101761.38;4954590;29;20094;-73
2022/10/19 06:13:27;;;;;;;13.07;8.40;;;;;;;12.03;83.60;101755.56;4954619;29;20111;-74
2022/10/19 06:16:32;;;;;;;15.25;10.20;;;;;;;11.98;83.66;101765.34;4954128;29;20469;-73
2022/10/19 06:19:36;;;;;;;12.32;8.35;;;;;;;11.77;84.14;101760.00;4950964;29;20102;-73
2022/10/19 06:22:39;;;;;;;10.35;8.45;;;;;;;11.74;83.68;101757.47;4954252;29;20132;-74
2022/10/19 06:25:43;;;;;;;9.45;7.10;;;;;;;11.66;84.29;101764.75;4941307;29;20101;-74
2022/10/19 06:28:48;;;;;;;13.07;7.95;;;;;;;11.65;83.99;101768.31;4953920;29;20074;-74
2022/10/19 06:31:53;;;;;;;16.30;7.63;;;;;;;11.73;83.98;101771.47;4953874;29;20050;-73
2022/10/19 06:34:56;;;;;;;10.65;7.57;;;;;;;11.79;83.17;101765.16;4953910;29;20056;-73
2022/10/19 06:38:00;;;;;;;10.18;6.90;;;;;;;11.58;83.65;101764.19;4954382;29;20093;-73
2022/10/19 06:41:04;;;;;;;10.95;6.57;;;;;;;11.57;83.75;101771.19;4953978;29;20118;-74
2022/10/19 06:44:08;;;;;;;12.73;6.45;;;;;;;11.65;83.42;101776.16;4954174;29;20058;-74
2022/10/19 06:47:11;;;;;;;9.63;6.60;;;;;;;11.62;83.47;101782.34;4953757;29;20081;-74
2022/10/19 06:50:15;;;;;;;12.85;5.68;;;;;;;11.50;83.71;101785.41;4953977;29;20137;-73
2022/10/19 06:53:19;;;;;;;12.88;7.15;;;;;;;11.46;84.31;101785.59;4953741;29;20054;-73
2022/10/19 06:56:23;;;;;;;9.05;7.20;;;;;;;11.32;83.58;101794.78;4953690;28;20074;-73
2022/10/19 06:59:26;;;;;;;9.77;6.00;;;;;;;11.38;83.56;101791.09;4953712;29;20522;-74
2022/10/19 07:02:31;;;;;;;10.45;5.82;;;;;;;11.32;84.54;101794.78;4954043;29;20054;-73
2022/10/19 07:05:39;;;;;;;10.75;5.53;;;;;;;11.40;83.27;101789.28;4941838;29;20102;-73
2022/10/19 07:08:44;;;;;;;8.02;5.22;;;;;;;11.44;83.13;101790.03;4955458;28;20046;-73
2022/10/19 07:11:47;;;;;;;10.10;6.15;;;;;;;11.33;83.77;101799.13;4957747;29;20046;-73
2022/10/19 07:14:51;;;;;;;8.75;5.95;;;;;;;11.33;83.67;101798.28;4957493;29;20047;-73
2022/10/19 07:17:54;;;;;;;9.85;6.38;;;;;;;11.20;83.75;101807.44;4957412;29;20070;-73
2022/10/19 07:21:00;;;;;;;10.85;5.82;;;;;;;11.20;83.89;101807.44;4957313;29;20077;-74
2022/10/19 07:24:04;;;;;;;9.35;5.85;;;;;;;11.27;83.54;101808.97;4957807;29;20047;-74
2022/10/19 07:27:08;;;;;;;12.43;6.75;;;;;;;11.27;83.78;101809.81;4957475;29;20139;-73
2022/10/19 07:30:38;;;;;;;;;;;;;;;11.37;83.66;101811.19;4945885;29;20510;-73
2022/10/19 07:33:54;;;;;;;7.45;6.05;;;;;;;11.33;83.83;101812.22;4938043;29;20431;-73
2022/10/19 07:37:01;;;;;;;13.75;6.50;;;;;;;11.36;83.53;101809.50;4938165;29;20431;-73
2022/10/19 07:40:04;;;;;;;10.55;5.90;;;;;;;11.41;83.24;101806.69;4925998;29;20078;-74
2022/10/19 07:43:08;;;;;;;15.38;6.47;;;;;;;11.44;83.14;101822.31;4938121;29;20144;-73
2022/10/19 07:46:19;;;;;;;10.88;6.63;;;;;;;11.55;82.74;101806.19;4938105;29;20051;-73
2022/10/19 07:49:23;;;;;;;13.85;5.93;;;;;;;11.55;82.39;101821.91;4937691;29;20047;-73
2022/10/19 07:52:27;;;;;;;18.13;6.80;;;;;;;11.69;82.15;101810.97;4938115;29;20523;-73
2022/10/19 07:55:33;;;;;;;9.20;5.97;;;;;;;11.67;83.01;101813.63;4937571;29;20046;-73
2022/10/19 07:58:37;;;;;;;10.68;6.05;;;;;;;11.74;81.87;101815.13;4937604;29;20135;-73
2022/10/19 08:01:41;;;;;;;10.48;6.00;;;;;;;11.91;81.28;101818.91;4937554;29;20043;-74
2022/10/19 08:04:45;;;;;;;11.80;5.65;;;;;;;11.80;81.30;101817.50;4937274;29;20099;-74
2022/10/19 08:07:49;;;;;;;13.13;6.88;;;;;;;11.85;80.46;101812.13;4937755;29;20522;-73
2022/10/19 08:10:53;;;;;;;14.18;6.20;;;;;;;11.80;81.18;101808.78;4937511;29;20110;-73
2022/10/19 08:14:01;;;;;;;11.45;5.88;;;;;;;11.59;81.92;101813.06;4936402;29;20131;-73
2022/10/19 08:17:05;;;;;;;9.52;5.72;;;;;;;11.58;81.84;101811.31;4937073;29;20043;-73
2022/10/19 08:20:09;;;;;;;11.35;5.93;;;;;;;11.69;81.35;101809.19;4936338;29;20115;-74
2022/10/19 08:23:13;;;;;;;10.45;5.60;;;;;;;11.91;81.51;101817.16;4936134;29;20546;-73
2022/10/19 08:26:19;;;;;;;12.77;5.60;;;;;;;11.79;81.16;101815.78;4936396;29;20403;-73
2022/10/19 08:29:23;;;;;;;11.02;5.57;;;;;;;11.86;81.18;101806.81;4936960;29;20070;-73
2022/10/19 08:32:27;;;;;;;17.45;6.90;;;;;;;11.83;81.35;101801.66;4936880;29;20070;-73
2022/10/19 08:35:35;;;;;;;14.30;5.38;;;;;;;12.06;80.30;101800.84;4936918;29;20050;-73
2022/10/19 08:38:40;;;;;;;11.55;5.90;;;;;;;12.12;79.98;101798.88;4936895;29;20058;-73
2022/10/19 08:42:16;;;;;;;12.63;4.90;;;;;;;12.04;79.80;101804.44;4936834;29;20054;-73
2022/10/19 08:45:34;;;;;;;9.15;5.50;;;;;;;12.10;80.34;101798.97;4924572;29;20119;-73
2022/10/19 08:48:41;;;;;;;13.73;5.57;;;;;;;12.30;80.50;101792.94;4937399;29;20204;-73
2022/10/19 08:51:51;;;;;;;12.65;5.50;;;;;;;12.42;79.08;101795.09;4937764;29;20511;-74
2022/10/19 08:55:17;;;;;;;9.82;5.43;;;;;;;12.49;78.74;101790.44;4936403;29;20050;-74
2022/10/19 08:58:29;;;;;;;9.45;5.55;;;;;;;12.44;79.28;101781.91;4937287;29;20054;-73
2022/10/19 09:01:53;;;;;;;10.68;5.05;;;;;;;12.47;79.04;101776.53;4937299;29;20067;-73
2022/10/19 09:05:04;;;;;;;13.18;6.00;;;;;;;12.54;78.81;101783.25;4936350;29;20047;-74
2022/10/19 09:08:09;;;;;;;13.00;5.20;;;;;;;12.29;79.04;101775.50;4936563;29;20556;-74
2022/10/19 09:11:15;;;;;;;8.48;5.13;;;;;;;12.57;78.02;101770.88;4936809;29;20052;-74
2022/10/19 09:14:37;;;;;;;20.45;5.43;;;;;;;12.70;78.02;101759.84;4936403;29;20408;-73
2022/10/19 09:17:41;;;;;;;10.90;5.50;;;;;;;12.67;77.69;101752.97;4934092;29;20135;-74
2022/10/19 09:20:52;;;;;;;11.43;5.28;;;;;;;12.73;77.56;101749.22;4936575;29;20074;-74
2022/10/19 09:24:01;;;;;;;10.68;4.47;;;;;;;12.70;77.39;101754.59;4936397;29;20055;-73
2022/10/19 09:27:19;;;;;;;10.05;5.57;;;;;;;12.73;77.50;101749.22;4935937;29;20062;-74
2022/10/19 09:30:23;;;;;;;12.23;5.30;;;;;;;12.50;78.20;101758.03;4936212;29;20514;-74
2022/10/19 09:33:59;;;;;;;8.93;5.43;;;;;;;12.29;80.04;101746.66;4935236;29;20070;-73
2022/10/19 09:37:11;;;;;;;12.20;6.32;;;;;;;12.00;80.93;101748.66;4935856;29;20039;-73
2022/10/19 09:40:25;;;;;;;10.20;6.25;;;;;;;11.99;83.80;101749.53;4935827;29;20127;-74
2022/10/19 09:43:29;;;;;;;;;;;;;;;12.13;80.91;101748.19;4935743;29;20054;-74
2022/10/19 09:46:44;;;;;;;13.38;5.72;;;;;;;12.14;81.21;101749.88;4934769;29;20102;-76
2022/10/19 09:50:07;;;;;;;12.05;5.57;;;;;;;12.31;79.21;101736.94;4936498;29;20119;-73
2022/10/19 09:53:20;;;;;;;11.70;5.82;;;;;;;12.57;78.37;101741.13;4934757;29;20043;-74
2022/10/19 09:56:27;;;;;;;13.20;5.15;;;;;;;12.52;78.46;101735.22;4935686;29;20050;-74
2022/10/19 09:59:36;;;;;;;11.55;6.47;;;;;;;12.65;78.32;101735.56;4935875;29;20510;-74
2022/10/19 10:02:48;;;;;;;11.68;5.07;;;;;;;12.69;78.13;101731.91;4935972;29;20046;-74
2022/10/19 10:05:53;;;;;;;10.82;5.20;;;;;;;12.91;77.77;101727.44;4935397;29;20128;-74
2022/10/19 10:09:00;;;;;;;9.27;5.68;;;;;;;13.08;76.79;101724.13;4935273;29;20050;-74
2022/10/19 10:12:07;;;;;;;11.10;4.80;;;;;;;13.28;75.62;101727.66;4923936;29;20056;-74
2022/10/19 10:15:17;;;;;;;13.02;6.30;;;;;;;13.20;77.05;101726.16;4935409;29;20055;-74
2022/10/19 10:18:26;;;;;;;7.38;4.55;;;;;;;13.21;76.67;101727.91;4934649;29;20051;-74
2022/10/19 10:21:36;;;;;;;13.18;5.15;;;;;;;13.34;77.18;101725.63;4931284;29;20051;-74
2022/10/19 10:24:52;;;;;;;10.18;4.57;;;;;;;13.62;76.23;101717.31;4935167;29;20054;-74
2022/10/19 10:28:18;;;;;;;14.90;5.30;;;;;;;13.72;75.61;101718.63;4934422;29;20046;-74
2022/10/19 10:31:26;;;;;;;7.57;3.95;;;;;;;13.80;75.67;101714.78;4934479;29;20055;-74
2022/10/19 10:34:34;;;;;;;13.52;4.57;;;;;;;13.77;75.32;101714.91;4934927;29;20047;-74
2022/10/19 10:37:41;;;;;;;8.18;4.25;;;;;;;13.68;75.32;101711.78;4934470;29;20522;-74
2022/10/19 10:40:56;;;;;;;9.60;4.10;;;;;;;13.75;75.30;101708.88;4935310;29;20054;-74
2022/10/19 10:44:05;;;;;;;11.93;5.15;;;;;;;13.77;75.29;101707.88;4934432;29;20513;-74
2022/10/19 10:47:14;;;;;;;9.32;3.60;;;;;;;13.68;76.08;101701.25;4935089;29;20135;-74
2022/10/19 10:50:22;;;;;;;12.05;4.18;;;;;;;13.61;75.48;101694.59;4935006;29;20046;-74
2022/10/19 10:53:35;;;;;;;11.02;4.03;;;;;;;13.43;75.72;101695.44;4935103;29;20110;-74
2022/10/19 10:56:41;;;;;;;9.55;3.50;;;;;;;13.54;75.15;101682.66;4934771;29;20070;-74
2022/10/19 10:59:50;;;;;;;15.45;4.07;;;;;;;13.48;74.43;101685.56;4934963;29;20467;-74
2022/10/19 11:03:13;;;;;;;15.23;5.28;;;;;;;13.77;76.70;101680.75;4934739;29;20164;-74
2022/10/19 11:06:21;;;;;;;11.13;4.88;;;;;;;13.68;74.51;101680.22;4934529;29;20464;-74
2022/10/19 11:09:54;;;;;;;17.67;5.82;;;;;;;13.90;76.41;101666.09;4934992;29;20151;-74
2022/10/19 11:16:56;;;;;;;16.00;5.60;;;;;;;13.91;73.84;101649.38;4933941;29;20111;-74
2022/10/19 11:20:00;;;;;;;10.60;6.07;;;;;;;13.97;74.52;101651.69;4933875;29;20126;-74
2022/10/19 11:23:19;;;;;;;14.80;5.10;;;;;;;14.17;75.56;101641.06;4934506;29;20107;-73
2022/10/19 11:26:48;;;;;;;9.30;3.33;;;;;;;14.13;72.88;101628.13;4934924;29;20171;-74
2022/10/19 11:30:19;;;;;;;13.10;4.32;;;;;;;14.11;74.74;101638.75;4934599;29;20091;-75
2022/10/19 11:34:00;;;;;;;9.85;3.78;;;;;;;14.13;72.34;101628.13;4934472;29;20059;-74
2022/10/19 11:37:06;;;;;;;7.75;3.72;;;;;;;14.09;71.91;101619.56;4933680;29;20082;-74
2022/10/19 11:40:10;;;;;;;15.38;3.83;;;;;;;14.19;72.36;101610.28;4603414;28;10000551;-74
2022/10/19 11:43:16;;;;;;;;;;;;;;;14.23;72.80;101610.13;4954269;29;20054;-74
2022/10/19 11:46:41;;;;;;;11.40;3.80;;;;;;;14.18;72.58;101611.22;4953529;29;19921;-74
2022/10/19 11:49:55;;;;;;;9.15;4.13;;;;;;;14.25;72.65;101603.00;4953590;29;20057;-74
2022/10/19 11:53:22;;;;;;;6.57;3.38;;;;;;;14.40;72.35;101591.72;4953714;29;20042;-74
2022/10/19 11:56:35;;;;;;;10.40;3.60;;;;;;;14.58;72.65;101585.53;4956324;29;20058;-74
2022/10/19 12:00:03;;;;;;;10.32;3.72;;;;;;;14.76;71.34;101588.13;4957007;29;20047;-74
2022/10/19 12:03:30;;;;;;;8.65;4.85;;;;;;;14.89;70.38;101578.63;4956756;29;20134;-74
2022/10/19 12:06:58;;;;;;;14.15;3.80;;;;;;;14.98;70.53;101575.50;4956622;29;20047;-74
2022/10/19 12:10:15;;;;;;;9.13;3.50;;;;;;;15.17;70.71;101566.59;4957092;28;20109;-75
2022/10/19 12:13:26;;;;;;;12.57;4.47;;;;;;;15.06;70.84;101570.69;4957147;29;20058;-74
2022/10/19 12:16:36;;;;;;;7.70;3.53;;;;;;;15.06;70.81;101564.53;4956565;29;20399;-74
2022/10/19 12:19:48;;;;;;;11.95;3.33;;;;;;;15.19;71.34;101555.06;4944648;29;20050;-74
2022/10/19 12:22:52;;;;;;;7.18;3.33;;;;;;;15.33;70.85;101541.94;4956953;29;20050;-74
2022/10/19 12:25:59;;;;;;;12.32;3.95;;;;;;;15.43;71.01;101537.00;4956501;29;20050;-74
2022/10/19 12:29:06;;;;;;;7.00;3.60;;;;;;;15.20;71.57;101532.19;4956514;29;20077;-74
2022/10/19 12:32:14;;;;;;;11.40;4.00;;;;;;;15.30;71.41;101522.84;4956540;29;20049;-74
2022/10/19 12:35:59;;;;;;;12.07;3.55;;;;;;;15.48;70.97;101515.69;4955484;29;20569;-74
2022/10/19 12:39:10;;;;;;;7.18;4.05;;;;;;;15.65;70.25;101515.56;4956326;29;20054;-74
2022/10/19 12:42:35;;;;;;;11.57;3.30;;;;;;;15.77;69.35;101499.06;4956121;29;20054;-74
2022/10/19 12:45:59;;;;;;;10.73;3.60;;;;;;;15.76;70.05;101501.78;4955472;29;20102;-74
2022/10/19 12:49:28;;;;;;;10.10;4.65;;;;;;;15.57;70.56;101500.19;4943241;29;20134;-74
2022/10/19 12:52:38;;;;;;;9.77;4.03;;;;;;;15.70;70.56;101499.53;4951582;28;20090;-74
2022/10/19 12:55:41;;;;;;;9.10;4.15;;;;;;;15.68;70.52;101499.59;4955592;28;20463;-74
2022/10/19 12:58:47;;;;;;;8.85;3.58;;;;;;;15.60;71.60;101493.88;4955293;28;20106;-74
2022/10/19 13:01:52;;;;;;;9.60;3.75;;;;;;;15.86;70.15;101487.13;4955691;28;20073;-74
2022/10/19 13:04:56;;;;;;;11.90;3.38;;;;;;;15.98;69.78;101478.47;4955533;28;20062;-74
2022/10/19 13:08:05;;;;;;;6.80;3.92;;;;;;;15.99;69.74;101474.06;4955915;28;20419;-74
2022/10/19 13:11:14;;;;;;;12.25;3.58;;;;;;;15.69;70.30;101469.63;4955643;28;20050;-74
2022/10/19 13:14:35;;;;;;;11.63;3.75;;;;;;;15.67;70.16;101470.69;4955686;28;20082;-74
2022/10/19 13:17:49;;;;;;;12.05;3.90;;;;;;;15.75;70.24;101458.72;4955366;28;20081;-74
2022/10/19 13:20:53;;;;;;;14.07;3.85;;;;;;;15.75;70.28;101449.97;4955857;28;20125;-74
2022/10/19 13:24:23;;;;;;;6.22;2.90;;;;;;;15.79;71.14;101447.09;4955546;29;20054;-74
2022/10/19 13:27:27;;;;;;;6.22;2.97;;;;;;;15.78;70.61;101437.47;4954886;28;20094;-74
2022/10/19 13:30:37;;;;;;;10.98;3.83;;;;;;;15.80;70.73;101435.59;4954984;28;20049;-74
2022/10/19 13:33:46;;;;;;;8.63;3.47;;;;;;;16.02;70.17;101439.59;4955050;28;20050;-74
2022/10/19 13:37:01;;;;;;;8.20;2.85;;;;;;;16.02;69.82;101439.59;4954640;28;20474;-74
2022/10/19 13:40:18;;;;;;;11.50;3.85;;;;;;;16.06;69.46;101427.06;4954796;28;20050;-74
2022/10/19 13:43:31;;;;;;;9.25;3.33;;;;;;;16.14;68.90;101422.13;4954557;28;20603;-74
2022/10/19 13:47:00;;;;;;;9.88;3.65;;;;;;;16.03;69.07;101421.00;4953597;28;20102;-74
2022/10/19 13:50:06;;;;;;;10.63;3.08;;;;;;;16.07;68.87;101432.22;4953126;28;20045;-74
2022/10/19 13:53:29;;;;;;;14.23;4.50;;;;;;;16.11;68.87;101424.97;4941019;29;20050;-74
2022/10/19 13:56:48;;;;;;;11.07;3.45;;;;;;;16.12;69.54;101432.81;4952628;28;20046;-74
2022/10/19 14:00:04;;;;;;;10.93;2.60;;;;;;;16.12;69.69;101430.16;4941180;28;20055;-74
2022/10/19 14:03:34;;;;;;;12.68;3.28;;;;;;;16.17;69.19;101419.31;4952949;28;20094;-74
2022/10/19 14:06:45;;;;;;;14.80;2.70;;;;;;;16.16;69.66;101420.25;4942720;29;20049;-74
2022/10/19 14:10:02;;;;;;;9.15;2.38;;;;;;;16.19;69.39;101417.44;4954022;28;20533;-74
2022/10/19 14:13:12;;;;;;;9.23;2.78;;;;;;;16.08;69.90;101412.84;4954198;28;20418;-74
2022/10/19 14:16:19;;;;;;;11.65;2.58;;;;;;;16.24;69.53;101417.97;4951799;28;20050;-74
2022/10/19 14:19:31;;;;;;;10.55;2.03;;;;;;;16.17;70.95;101422.78;4948647;28;20258;-74
2022/10/19 14:22:35;;;;;;;10.23;2.50;;;;;;;16.00;71.07;101415.91;4935073;29;20055;-74
2022/10/19 14:25:39;;;;;;;7.32;2.33;;;;;;;15.99;70.75;101418.66;4960530;28;20120;-74
2022/10/19 14:28:43;;;;;;;9.20;3.08;;;;;;;15.86;69.87;101418.56;4973823;28;20058;-75
2022/10/19 14:31:46;;;;;;;11.70;2.10;;;;;;;15.74;70.01;101414.84;4972353;28;20097;-74
2022/10/19 14:34:51;;;;;;;9.85;2.35;;;;;;;15.81;70.73;101415.34;4953673;28;20149;-75